Time;durP1;ratioP1;P1;durP2;ratioP2;P2;SDS_P1;SDS_P2;PMS_P1;PMS_P2;Temp;Humidity;BMP_temperature;BMP_pressure;BME280_temperature;BME280_humidity;BME280_pressure;Samples;Min_cycle;Max_cycle;Signal;HPM_P1;HPM_P2
2022/08/27 00:02:11;;;;;;;2.78;1.00;;;;;;;;;;5091803;28;20036;-77
2022/08/27 00:04:37;;;;;;;3.75;1.10;;;;;;;;;;5090054;28;20070;-77
2022/08/27 00:07:04;;;;;;;3.95;1.20;;;;;;;;;;5090205;28;20030;-77
2022/08/27 00:09:30;;;;;;;2.30;1.13;;;;;;;;;;5090443;28;20497;-75
2022/08/27 00:11:57;;;;;;;2.65;1.23;;;;;;;;;;5091683;28;20024;-77
2022/08/27 00:14:23;;;;;;;2.92;1.20;;;;;;;;;;5090422;28;20096;-76
2022/08/27 00:16:49;;;;;;;4.75;1.50;;;;;;;;;;5091904;28;20601;-76
2022/08/27 00:19:16;;;;;;;3.08;1.23;;;;;;;;;;5090968;28;20067;-76
2022/08/27 00:21:42;;;;;;;4.53;1.27;;;;;;;;;;5089613;28;20040;-76
2022/08/27 00:24:07;;;;;;;3.33;1.00;;;;;;;;;;5089965;28;20074;-76
2022/08/27 00:26:34;;;;;;;2.92;1.10;;;;;;;;;;5090686;28;20125;-75
2022/08/27 00:29:00;;;;;;;5.13;1.40;;;;;;;;;;5091225;28;20477;-76
2022/08/27 00:31:26;;;;;;;4.30;1.13;;;;;;;;;;5090892;28;20028;-79
2022/08/27 00:33:52;;;;;;;3.05;1.15;;;;;;;;;;5091790;28;20031;-76
2022/08/27 00:36:19;;;;;;;4.85;1.35;;;;;;;;;;5088703;28;20031;-78
2022/08/27 00:38:45;;;;;;;3.60;1.13;;;;;;;;;;5090028;28;20035;-77
2022/08/27 00:41:12;;;;;;;3.97;1.40;;;;;;;;;;5090710;28;20028;-76
2022/08/27 00:43:44;;;;;;;1.25;0.98;;;;;;;;;;5089323;28;20024;-77
2022/08/27 00:46:22;;;;;;;3.40;1.10;;;;;;;;;;5091583;28;20481;-75
2022/08/27 00:48:48;;;;;;;2.65;1.20;;;;;;;;;;5090514;28;20554;-76
2022/08/27 00:51:15;;;;;;;3.90;1.08;;;;;;;;;;5085259;28;20034;-75
2022/08/27 00:53:41;;;;;;;4.35;1.00;;;;;;;;;;5089105;28;20020;-76
2022/08/27 00:56:15;;;;;;;5.88;1.40;;;;;;;;;;5088772;28;20447;-76
2022/08/27 00:58:46;;;;;;;2.90;1.05;;;;;;;;;;5089515;28;20028;-75
2022/08/27 01:01:13;;;;;;;2.88;0.90;;;;;;;;;;5089798;28;20139;-75
2022/08/27 01:03:41;;;;;;;3.42;1.23;;;;;;;;;;5089823;28;20031;-76
2022/08/27 01:06:10;;;;;;;3.75;1.48;;;;;;;;;;5077599;28;20506;-77
2022/08/27 01:08:38;;;;;;;4.47;1.10;;;;;;;;;;5070769;28;20029;-76
2022/08/27 01:11:04;;;;;;;3.10;1.13;;;;;;;;;;5070195;28;20017;-75
2022/08/27 01:13:31;;;;;;;1.83;1.00;;;;;;;;;;5067992;28;20158;-77
2022/08/27 01:15:58;;;;;;;2.97;1.30;;;;;;;;;;5072818;28;20013;-76
2022/08/27 01:18:28;;;;;;;4.13;1.08;;;;;;;;;;5080369;28;20024;-76
2022/08/27 01:21:01;;;;;;;4.75;1.15;;;;;;;;;;5073731;28;20382;-76
2022/08/27 01:23:27;;;;;;;1.73;1.00;;;;;;;;;;5078693;28;20016;-76
2022/08/27 01:25:53;;;;;;;4.53;1.00;;;;;;;;;;5082862;28;20019;-76
2022/08/27 01:28:20;;;;;;;3.13;1.33;;;;;;;;;;5076149;28;20063;-76
2022/08/27 01:30:46;;;;;;;4.60;1.30;;;;;;;;;;5085738;28;20021;-76
2022/08/27 01:33:13;;;;;;;2.50;1.00;;;;;;;;;;5072327;28;20039;-76
2022/08/27 01:35:40;;;;;;;6.63;1.35;;;;;;;;;;5076284;28;20024;-76
2022/08/27 01:38:06;;;;;;;3.28;1.42;;;;;;;;;;5069554;28;20073;-76
2022/08/27 01:40:32;;;;;;;3.00;1.00;;;;;;;;;;5072070;28;20020;-76
2022/08/27 01:42:58;;;;;;;3.80;1.60;;;;;;;;;;5070732;28;20028;-76
2022/08/27 01:45:26;;;;;;;3.13;1.13;;;;;;;;;;5070198;28;20017;-75
2022/08/27 01:47:52;;;;;;;5.40;1.48;;;;;;;;;;5089929;28;20494;-78
2022/08/27 01:50:27;;;;;;;4.45;1.52;;;;;;;;;;5089213;28;20107;-76
2022/08/27 01:52:54;;;;;;;4.18;1.27;;;;;;;;;;5089675;28;20016;-76
2022/08/27 01:55:21;;;;;;;3.55;1.00;;;;;;;;;;5088838;28;20107;-77
2022/08/27 01:57:47;;;;;;;4.53;1.27;;;;;;;;;;5090558;28;20025;-75
2022/08/27 02:00:16;;;;;;;3.13;1.40;;;;;;;;;;5090746;28;20039;-75
2022/08/27 02:02:43;;;;;;;5.55;1.50;;;;;;;;;;5087829;28;20024;-78
2022/08/27 02:05:09;;;;;;;3.28;1.30;;;;;;;;;;5089548;28;20097;-75
2022/08/27 02:07:35;;;;;;;2.70;1.17;;;;;;;;;;5087956;28;20401;-76
2022/08/27 02:10:01;;;;;;;3.03;1.10;;;;;;;;;;5090145;28;20020;-76
2022/08/27 02:12:27;;;;;;;1.70;1.20;;;;;;;;;;5088669;28;20032;-75
2022/08/27 02:14:53;;;;;;;3.15;1.20;;;;;;;;;;5090440;28;20044;-76
2022/08/27 02:17:19;;;;;;;2.97;1.27;;;;;;;;;;5085162;28;20093;-76
2022/08/27 02:19:45;;;;;;;2.30;1.15;;;;;;;;;;5088121;28;20031;-78
2022/08/27 02:22:11;;;;;;;5.03;1.42;;;;;;;;;;5088952;28;20051;-75
2022/08/27 02:24:38;;;;;;;3.80;1.20;;;;;;;;;;5089315;28;20030;-76
2022/08/27 02:27:04;;;;;;;2.95;1.50;;;;;;;;;;5088747;28;20048;-74
2022/08/27 02:29:30;;;;;;;3.13;1.30;;;;;;;;;;5090279;28;20028;-75
2022/08/27 02:31:56;;;;;;;1.77;1.38;;;;;;;;;;5086091;28;20466;-78
2022/08/27 02:34:22;;;;;;;6.63;1.40;;;;;;;;;;5088505;28;20119;-77
2022/08/27 02:36:48;;;;;;;3.97;1.58;;;;;;;;;;5086982;28;20302;-76
2022/08/27 02:39:14;;;;;;;3.83;1.30;;;;;;;;;;5089106;28;20032;-76
2022/08/27 02:41:40;;;;;;;4.20;1.50;;;;;;;;;;5082421;28;20013;-75
2022/08/27 02:44:05;;;;;;;3.72;1.50;;;;;;;;;;5073214;28;20013;-76
2022/08/27 02:46:31;;;;;;;4.25;1.42;;;;;;;;;;5082902;28;20020;-76
2022/08/27 02:48:57;;;;;;;5.72;1.48;;;;;;;;;;5072032;28;20375;-75
2022/08/27 02:51:24;;;;;;;2.85;1.52;;;;;;;;;;5075749;28;20021;-75
2022/08/27 02:53:50;;;;;;;4.35;1.52;;;;;;;;;;5076424;28;20028;-76
2022/08/27 02:56:16;;;;;;;2.13;1.45;;;;;;;;;;5084364;28;20032;-78
2022/08/27 02:58:42;;;;;;;3.55;1.52;;;;;;;;;;5070863;28;20032;-76
2022/08/27 03:01:08;;;;;;;2.40;1.27;;;;;;;;;;5081895;28;20020;-78
2022/08/27 03:03:34;;;;;;;2.53;1.13;;;;;;;;;;5073857;28;20479;-76
2022/08/27 03:06:00;;;;;;;3.85;1.60;;;;;;;;;;5071336;28;20028;-75
2022/08/27 03:08:26;;;;;;;4.47;1.42;;;;;;;;;;5074988;28;20363;-76
2022/08/27 03:10:53;;;;;;;1.88;1.25;;;;;;;;;;5072095;28;20193;-76
2022/08/27 03:13:19;;;;;;;3.80;1.60;;;;;;;;;;5073430;28;20532;-75
2022/08/27 03:15:45;;;;;;;3.30;1.30;;;;;;;;;;5070777;28;20112;-75
2022/08/27 03:18:17;;;;;;;2.35;1.40;;;;;;;;;;5071312;28;20044;-76
2022/08/27 03:20:44;;;;;;;4.68;1.70;;;;;;;;;;5072431;28;20032;-76
2022/08/27 03:23:11;;;;;;;3.00;1.38;;;;;;;;;;5071729;28;20028;-76
2022/08/27 03:25:38;;;;;;;3.58;1.20;;;;;;;;;;5072002;28;20387;-76
2022/08/27 03:28:04;;;;;;;4.68;1.45;;;;;;;;;;5086119;28;20048;-76
2022/08/27 03:30:30;;;;;;;2.50;1.25;;;;;;;;;;5092352;28;20020;-76
2022/08/27 03:32:56;;;;;;;2.28;1.38;;;;;;;;;;5090315;28;20531;-75
2022/08/27 03:35:22;;;;;;;4.70;1.65;;;;;;;;;;5091697;28;20024;-75
2022/08/27 03:37:49;;;;;;;5.93;1.42;;;;;;;;;;5092704;28;20020;-75
2022/08/27 03:40:15;;;;;;;3.83;1.52;;;;;;;;;;5091520;28;20036;-75
2022/08/27 03:42:41;;;;;;;2.70;1.42;;;;;;;;;;5089261;28;20016;-74
2022/08/27 03:45:08;;;;;;;2.83;1.30;;;;;;;;;;5090283;28;20024;-76
2022/08/27 03:47:34;;;;;;;4.53;1.55;;;;;;;;;;5090562;28;20024;-75
2022/08/27 03:50:00;;;;;;;3.45;1.45;;;;;;;;;;5091543;28;20525;-76
2022/08/27 03:52:27;;;;;;;2.35;1.50;;;;;;;;;;5092627;28;20017;-75
2022/08/27 03:54:52;;;;;;;4.28;1.35;;;;;;;;;;5091529;28;20097;-76
2022/08/27 03:57:19;;;;;;;3.72;1.50;;;;;;;;;;5088785;28;20069;-76
2022/08/27 03:59:45;;;;;;;2.67;1.35;;;;;;;;;;5090796;28;20623;-74
2022/08/27 04:02:11;;;;;;;2.45;1.33;;;;;;;;;;5090254;28;20110;-76
2022/08/27 04:04:37;;;;;;;3.67;1.20;;;;;;;;;;5091838;28;20031;-75
2022/08/27 04:07:03;;;;;;;3.40;1.60;;;;;;;;;;5090590;28;20020;-76
2022/08/27 04:09:29;;;;;;;2.92;1.40;;;;;;;;;;5090482;28;20024;-74
2022/08/27 04:11:55;;;;;;;5.65;1.65;;;;;;;;;;5078772;28;20050;-76
2022/08/27 04:14:21;;;;;;;4.53;1.50;;;;;;;;;;5075484;28;20056;-75
2022/08/27 04:16:47;;;;;;;5.65;1.50;;;;;;;;;;5072551;28;20017;-76
2022/08/27 04:19:13;;;;;;;3.03;1.40;;;;;;;;;;5076510;28;20102;-76
2022/08/27 04:21:39;;;;;;;2.33;1.60;;;;;;;;;;5070889;28;20338;-76
2022/08/27 04:24:05;;;;;;;3.03;1.40;;;;;;;;;;5073369;28;20044;-75
2022/08/27 04:26:32;;;;;;;3.08;1.40;;;;;;;;;;5078139;28;20094;-77
2022/08/27 04:28:58;;;;;;;2.65;1.30;;;;;;;;;;5077964;28;20369;-75
2022/08/27 04:31:24;;;;;;;4.03;1.30;;;;;;;;;;5091063;28;20024;-76
2022/08/27 04:33:52;;;;;;;3.30;1.52;;;;;;;;;;5090215;28;20079;-75
2022/08/27 04:36:18;;;;;;;2.93;1.37;;;;;;;;;;5089969;28;20020;-75
2022/08/27 04:38:44;;;;;;;3.20;1.50;;;;;;;;;;5073737;28;20149;-76
2022/08/27 04:41:25;;;;;;;3.58;1.55;;;;;;;;;;5069290;28;20058;-77
2022/08/27 04:43:55;;;;;;;2.08;1.15;;;;;;;;;;5071060;28;20467;-75
2022/08/27 04:46:22;;;;;;;2.92;1.40;;;;;;;;;;5069804;28;20455;-75
2022/08/27 04:48:48;;;;;;;1.90;1.35;;;;;;;;;;5069738;28;20024;-74
2022/08/27 04:51:14;;;;;;;5.28;1.40;;;;;;;;;;5070146;28;20123;-75
2022/08/27 04:53:40;;;;;;;2.97;1.40;;;;;;;;;;5085603;28;20028;-76
2022/08/27 04:56:07;;;;;;;4.25;1.80;;;;;;;;;;5088766;28;20016;-77
2022/08/27 04:58:33;;;;;;;5.00;1.40;;;;;;;;;;5088811;28;20111;-76
2022/08/27 05:01:00;;;;;;;3.13;1.40;;;;;;;;;;5087548;28;20032;-78
2022/08/27 05:03:27;;;;;;;2.58;1.38;;;;;;;;;;5088760;28;20489;-76
2022/08/27 05:05:58;;;;;;;2.90;1.38;;;;;;;;;;5089070;28;20028;-75
2022/08/27 05:08:24;;;;;;;2.70;1.40;;;;;;;;;;5091172;28;20136;-76
2022/08/27 05:10:50;;;;;;;3.55;1.60;;;;;;;;;;5089006;28;20066;-75
2022/08/27 05:13:18;;;;;;;3.35;1.75;;;;;;;;;;5089895;28;20028;-75
2022/08/27 05:15:44;;;;;;;2.53;1.50;;;;;;;;;;5085973;28;20374;-77
2022/08/27 05:18:10;;;;;;;3.75;1.65;;;;;;;;;;5088860;28;20458;-77
2022/08/27 05:20:42;;;;;;;4.97;1.92;;;;;;;;;;5088709;28;20038;-75
2022/08/27 05:23:08;;;;;;;2.47;1.60;;;;;;;;;;5088636;28;20386;-77
2022/08/27 05:25:37;;;;;;;3.15;1.73;;;;;;;;;;5089801;28;20024;-76
2022/08/27 05:28:03;;;;;;;3.85;1.60;;;;;;;;;;5089657;28;20054;-77
2022/08/27 05:30:29;;;;;;;3.22;1.65;;;;;;;;;;5084332;28;20580;-76
2022/08/27 05:32:55;;;;;;;4.78;1.80;;;;;;;;;;5074254;28;20429;-75
2022/08/27 05:35:22;;;;;;;3.85;1.77;;;;;;;;;;5074159;28;20060;-75
2022/08/27 05:37:48;;;;;;;2.50;1.33;;;;;;;;;;5074973;28;20012;-76
2022/08/27 05:40:14;;;;;;;3.40;1.60;;;;;;;;;;5072462;28;20489;-75
2022/08/27 05:42:41;;;;;;;3.00;1.63;;;;;;;;;;5077725;28;20020;-75
2022/08/27 05:45:08;;;;;;;4.03;1.88;;;;;;;;;;5074985;28;20463;-75
2022/08/27 05:47:34;;;;;;;4.50;1.70;;;;;;;;;;5073474;28;20070;-77
2022/08/27 05:50:00;;;;;;;2.85;1.70;;;;;;;;;;5074672;28;20024;-76
2022/08/27 05:52:26;;;;;;;5.72;1.63;;;;;;;;;;5076386;28;20055;-77
2022/08/27 05:54:52;;;;;;;4.68;1.63;;;;;;;;;;5076253;28;20025;-75
2022/08/27 05:57:18;;;;;;;2.78;1.58;;;;;;;;;;5075664;28;20031;-76
2022/08/27 06:02:29;;;;;;;3.00;1.67;;;;;;;;;;5071964;28;20498;-77
2022/08/27 06:04:55;;;;;;;1.90;1.23;;;;;;;;;;5076272;28;20036;-75
2022/08/27 06:07:21;;;;;;;4.55;1.65;;;;;;;;;;5069917;28;20028;-76
2022/08/27 06:09:47;;;;;;;3.47;1.92;;;;;;;;;;5070825;28;20020;-75
2022/08/27 06:12:13;;;;;;;4.18;1.77;;;;;;;;;;5079658;28;20032;-77
2022/08/27 06:14:39;;;;;;;4.57;1.80;;;;;;;;;;5074722;28;20043;-80
2022/08/27 06:17:05;;;;;;;4.63;1.98;;;;;;;;;;5072140;28;20035;-78
2022/08/27 06:19:33;;;;;;;3.22;1.70;;;;;;;;;;5070401;28;20167;-78
2022/08/27 06:22:01;;;;;;;2.55;1.60;;;;;;;;;;5072933;28;20032;-79
2022/08/27 06:24:27;;;;;;;3.03;1.67;;;;;;;;;;5073841;28;20171;-77
2022/08/27 06:26:53;;;;;;;5.30;1.48;;;;;;;;;;5080824;28;20051;-79
2022/08/27 06:29:20;;;;;;;5.78;1.80;;;;;;;;;;5072542;28;20028;-76
2022/08/27 06:31:48;;;;;;;4.97;1.80;;;;;;;;;;5073051;28;20024;-76
2022/08/27 06:34:14;;;;;;;3.00;1.65;;;;;;;;;;5083259;28;20047;-77
2022/08/27 06:36:41;;;;;;;4.40;1.98;;;;;;;;;;5067436;28;20052;-77
2022/08/27 06:39:08;;;;;;;3.28;1.75;;;;;;;;;;5076701;28;20466;-77
2022/08/27 06:41:34;;;;;;;3.65;1.80;;;;;;;;;;5091975;28;20373;-76
2022/08/27 06:44:00;;;;;;;4.78;1.90;;;;;;;;;;5092879;28;20061;-77
2022/08/27 06:46:28;;;;;;;4.43;1.85;;;;;;;;;;5091048;28;20020;-79
2022/08/27 06:48:55;;;;;;;3.42;2.10;;;;;;;;;;5093197;28;20074;-77
2022/08/27 06:51:26;;;;;;;5.22;2.13;;;;;;;;;;5091234;28;20096;-76
2022/08/27 06:53:52;;;;;;;2.38;1.67;;;;;;;;;;5092794;28;20103;-77
2022/08/27 06:56:19;;;;;;;3.92;2.05;;;;;;;;;;5091004;28;20032;-78
2022/08/27 06:58:45;;;;;;;3.15;1.90;;;;;;;;;;5089433;28;20027;-77
2022/08/27 07:01:15;;;;;;;3.13;1.98;;;;;;;;;;5089804;28;20039;-77
2022/08/27 07:03:42;;;;;;;2.15;1.55;;;;;;;;;;5079847;28;20079;-76
2022/08/27 07:06:08;;;;;;;4.82;1.80;;;;;;;;;;5082526;28;20090;-77
2022/08/27 07:08:34;;;;;;;3.67;2.05;;;;;;;;;;5077840;28;20025;-77
2022/08/27 07:11:00;;;;;;;3.45;1.92;;;;;;;;;;5073081;28;20021;-78
2022/08/27 07:13:27;;;;;;;2.97;1.83;;;;;;;;;;5085946;28;20022;-79
2022/08/27 07:15:54;;;;;;;3.70;1.80;;;;;;;;;;5077786;28;20021;-77
2022/08/27 07:18:21;;;;;;;3.60;1.90;;;;;;;;;;5077960;28;20047;-76
2022/08/27 07:20:47;;;;;;;4.82;2.10;;;;;;;;;;5079632;28;20423;-77
2022/08/27 07:23:13;;;;;;;5.80;2.00;;;;;;;;;;5075324;28;20070;-76
2022/08/27 07:25:40;;;;;;;2.38;1.90;;;;;;;;;;5076038;28;20060;-77
2022/08/27 07:28:06;;;;;;;4.30;2.03;;;;;;;;;;5069845;28;20506;-77
2022/08/27 07:30:32;;;;;;;2.78;1.80;;;;;;;;;;5088805;28;20031;-78
2022/08/27 07:32:58;;;;;;;3.92;1.90;;;;;;;;;;5071465;28;20021;-78
2022/08/27 07:35:24;;;;;;;3.15;1.80;;;;;;;;;;5071894;28;20025;-77
2022/08/27 07:37:50;;;;;;;4.90;1.98;;;;;;;;;;5079913;28;20023;-77
2022/08/27 07:40:17;;;;;;;4.25;2.00;;;;;;;;;;5080574;28;20444;-76
2022/08/27 07:45:28;;;;;;;4.18;2.05;;;;;;;;;;5081776;28;20027;-77
2022/08/27 07:47:54;;;;;;;2.42;1.73;;;;;;;;;;5082693;28;20099;-76
2022/08/27 07:50:22;;;;;;;7.53;2.08;;;;;;;;;;5080777;28;20032;-79
2022/08/27 07:52:48;;;;;;;3.70;1.80;;;;;;;;;;5076713;28;20028;-77
2022/08/27 07:55:14;;;;;;;3.60;2.00;;;;;;;;;;5080543;28;20020;-77
2022/08/27 07:57:40;;;;;;;5.72;2.42;;;;;;;;;;5075999;28;20464;-77
2022/08/27 08:00:09;;;;;;;4.82;2.13;;;;;;;;;;5076043;28;20198;-79
2022/08/27 08:02:35;;;;;;;2.85;1.90;;;;;;;;;;5083095;28;20455;-74
2022/08/27 08:05:01;;;;;;;3.80;2.05;;;;;;;;;;5086384;28;20060;-79
2022/08/27 08:07:28;;;;;;;3.22;1.80;;;;;;;;;;5074353;28;20056;-78
2022/08/27 08:09:54;;;;;;;7.53;2.20;;;;;;;;;;5071492;28;20029;-78
2022/08/27 08:12:19;;;;;;;3.92;2.15;;;;;;;;;;5078849;28;20024;-80
2022/08/27 08:14:46;;;;;;;2.83;1.67;;;;;;;;;;5089421;28;20031;-79
2022/08/27 08:17:13;;;;;;;4.40;2.13;;;;;;;;;;5077034;28;20532;-78
2022/08/27 08:19:39;;;;;;;4.82;1.98;;;;;;;;;;5081824;28;20038;-78
2022/08/27 08:22:05;;;;;;;3.00;1.90;;;;;;;;;;5090696;28;20531;-79
2022/08/27 08:24:31;;;;;;;4.15;2.20;;;;;;;;;;5085330;28;20040;-79
2022/08/27 08:26:57;;;;;;;4.03;1.80;;;;;;;;;;5084435;28;20402;-79
2022/08/27 08:29:23;;;;;;;3.00;1.92;;;;;;;;;;5091538;28;20077;-78
2022/08/27 08:31:50;;;;;;;4.72;2.00;;;;;;;;;;5091458;28;20361;-78
2022/08/27 08:34:17;;;;;;;3.40;1.90;;;;;;;;;;5093131;28;20072;-79
2022/08/27 08:36:44;;;;;;;3.83;2.03;;;;;;;;;;5091419;28;20069;-79
2022/08/27 08:39:10;;;;;;;5.68;2.78;;;;;;;;;;5091454;28;20126;-78
2022/08/27 08:41:38;;;;;;;5.82;2.15;;;;;;;;;;5080290;28;20103;-79
2022/08/27 08:44:12;;;;;;;5.25;2.35;;;;;;;;;;5085768;28;20028;-77
2022/08/27 08:46:59;;;;;;;4.93;2.50;;;;;;;;;;5075905;28;20027;-78
2022/08/27 08:49:47;;;;;;;3.67;2.00;;;;;;;;;;5077999;28;20494;-77
2022/08/27 08:52:38;;;;;;;4.10;2.42;;;;;;;;;;5077211;28;20062;-75
2022/08/27 08:55:14;;;;;;;3.25;2.30;;;;;;;;;;5078845;28;20032;-81
2022/08/27 08:57:47;;;;;;;4.63;2.45;;;;;;;;;;5076669;28;20500;-80
2022/08/27 09:00:13;;;;;;;2.67;2.08;;;;;;;;;;5074853;28;20470;-77
2022/08/27 09:02:40;;;;;;;3.63;1.90;;;;;;;;;;5077084;28;20040;-77
2022/08/27 09:05:07;;;;;;;5.07;2.20;;;;;;;;;;5091131;28;20030;-77
2022/08/27 09:07:47;;;;;;;2.80;2.05;;;;;;;;;;5090079;28;20377;-76
2022/08/27 09:10:13;;;;;;;4.18;1.60;;;;;;;;;;5082766;28;20016;-76
2022/08/27 09:12:40;;;;;;;3.05;1.70;;;;;;;;;;5078824;28;20278;-78
2022/08/27 09:15:06;;;;;;;5.07;1.75;;;;;;;;;;5077973;28;20076;-80
2022/08/27 09:17:33;;;;;;;3.30;1.52;;;;;;;;;;5083018;28;20069;-77
2022/08/27 09:19:59;;;;;;;3.45;1.52;;;;;;;;;;5091085;28;20047;-77
2022/08/27 09:22:34;;;;;;;5.40;1.80;;;;;;;;;;5085329;28;20024;-82
2022/08/27 09:25:12;;;;;;;4.68;1.70;;;;;;;;;;5078185;28;20516;-77
2022/08/27 09:27:42;;;;;;;4.40;1.80;;;;;;;;;;5080055;28;20078;-76
2022/08/27 09:30:11;;;;;;;2.85;1.60;;;;;;;;;;5076473;28;20055;-76
2022/08/27 09:32:38;;;;;;;2.85;1.83;;;;;;;;;;5077952;28;20319;-79
2022/08/27 09:35:05;;;;;;;5.10;2.30;;;;;;;;;;5076910;28;20655;-76
2022/08/27 09:37:51;;;;;;;3.53;2.03;;;;;;;;;;5078183;28;20056;-76
2022/08/27 09:40:30;;;;;;;4.15;2.38;;;;;;;;;;5076222;28;20044;-80
2022/08/27 09:42:57;;;;;;;3.63;2.30;;;;;;;;;;5080572;28;20040;-82
2022/08/27 09:45:25;;;;;;;3.80;2.67;;;;;;;;;;5088368;28;20020;-81
2022/08/27 09:48:13;;;;;;;4.95;3.10;;;;;;;;;;5076673;28;20027;-77
2022/08/27 09:50:46;;;;;;;5.03;3.50;;;;;;;;;;5075427;28;20024;-77
2022/08/27 09:53:30;;;;;;;5.85;3.67;;;;;;;;;;5085453;28;20017;-80
2022/08/27 09:56:00;;;;;;;5.53;3.08;;;;;;;;;;5071263;28;20415;-77
2022/08/27 09:58:29;;;;;;;4.50;3.28;;;;;;;;;;5071813;28;20620;-77
2022/08/27 10:01:00;;;;;;;4.85;4.22;;;;;;;;;;5072651;28;20042;-75
2022/08/27 10:03:26;;;;;;;6.97;4.85;;;;;;;;;;5078669;28;20036;-78
2022/08/27 10:05:53;;;;;;;5.95;4.60;;;;;;;;;;5075373;28;20135;-76
2022/08/27 10:08:22;;;;;;;7.43;4.85;;;;;;;;;;5071227;28;20036;-76
2022/08/27 10:10:52;;;;;;;5.13;4.35;;;;;;;;;;5069081;28;20394;-75
2022/08/27 10:13:26;;;;;;;4.60;3.88;;;;;;;;;;5075154;28;20028;-77
2022/08/27 10:15:58;;;;;;;4.95;3.80;;;;;;;;;;5071962;28;20020;-84
2022/08/27 10:18:24;;;;;;;4.00;3.58;;;;;;;;;;5073454;28;20039;-79
2022/08/27 10:20:58;;;;;;;3.70;2.80;;;;;;;;;;5090238;28;20040;-76
2022/08/27 10:23:44;;;;;;;3.40;2.72;;;;;;;;;;5093068;28;20032;-76
2022/08/27 10:26:14;;;;;;;3.28;2.35;;;;;;;;;;5092389;28;20024;-79
2022/08/27 10:28:54;;;;;;;3.05;2.30;;;;;;;;;;5093323;28;20034;-77
2022/08/27 10:31:38;;;;;;;4.18;2.15;;;;;;;;;;5091935;28;20516;-76
2022/08/27 10:34:07;;;;;;;3.22;2.13;;;;;;;;;;5092306;28;20031;-76
2022/08/27 10:36:52;;;;;;;4.28;2.67;;;;;;;;;;5089274;28;20020;-75
2022/08/27 10:39:21;;;;;;;3.58;2.28;;;;;;;;;;5098815;28;20031;-76
2022/08/27 10:41:53;;;;;;;4.63;2.38;;;;;;;;;;5093266;28;20030;-76
2022/08/27 10:44:30;;;;;;;4.20;3.00;;;;;;;;;;5086500;28;20024;-75
2022/08/27 10:46:56;;;;;;;4.63;3.10;;;;;;;;;;5079518;28;20016;-77
2022/08/27 10:49:35;;;;;;;4.88;3.30;;;;;;;;;;5077924;28;20482;-81
2022/08/27 10:52:37;;;;;;;6.47;3.47;;;;;;;;;;5089552;28;20024;-76
2022/08/27 10:55:09;;;;;;;3.35;2.80;;;;;;;;;;5011840;28;20029;-75
2022/08/27 10:57:47;;;;;;;6.18;3.17;;;;;;;;;;5068415;28;20035;-77
2022/08/27 11:00:18;;;;;;;3.35;2.22;;;;;;;;;;5071979;28;20040;-80
2022/08/27 11:02:47;;;;;;;4.38;2.17;;;;;;;;;;5090677;28;20478;-76
2022/08/27 11:05:13;;;;;;;;;;;;;;;;;;5089789;28;20123;-76
2022/08/27 11:07:46;;;;;;;4.05;2.17;;;;;;;;;;5089674;28;19919;-77
2022/08/27 11:10:24;;;;;;;5.57;2.10;;;;;;;;;;5097484;28;20047;-76
2022/08/27 11:12:52;;;;;;;5.55;2.25;;;;;;;;;;5083798;28;20097;-76
2022/08/27 11:15:27;;;;;;;3.95;1.80;;;;;;;;;;5090207;28;20027;-76
2022/08/27 11:17:55;;;;;;;4.53;1.92;;;;;;;;;;5077279;28;20028;-77
2022/08/27 11:20:21;;;;;;;4.70;2.00;;;;;;;;;;5078739;28;20038;-77
2022/08/27 11:22:59;;;;;;;3.92;1.88;;;;;;;;;;5073523;28;20091;-76
2022/08/27 11:25:25;;;;;;;;;;;;;;;;;;5077395;28;20047;-76
2022/08/27 11:27:53;;;;;;;3.75;2.00;;;;;;;;;;5074676;28;19962;-76
2022/08/27 11:30:36;;;;;;;6.25;2.25;;;;;;;;;;5073318;28;20065;-76
2022/08/27 11:33:11;;;;;;;3.30;2.03;;;;;;;;;;5082161;28;20111;-82
2022/08/27 11:35:50;;;;;;;2.80;1.98;;;;;;;;;;5083964;28;20051;-76
2022/08/27 11:38:26;;;;;;;4.65;1.90;;;;;;;;;;5079426;28;20021;-76
2022/08/27 11:40:52;;;;;;;4.05;2.00;;;;;;;;;;5077643;28;20039;-77
2022/08/27 11:43:24;;;;;;;3.88;2.10;;;;;;;;;;5079465;28;20021;-76
2022/08/27 11:45:53;;;;;;;4.82;2.20;;;;;;;;;;5076714;28;20044;-77
2022/08/27 11:48:30;;;;;;;5.45;2.20;;;;;;;;;;5082532;28;20433;-76
2022/08/27 11:50:58;;;;;;;3.33;2.10;;;;;;;;;;5084438;28;20056;-77
2022/08/27 11:53:28;;;;;;;4.57;1.92;;;;;;;;;;5079927;28;20450;-78
2022/08/27 11:55:54;;;;;;;4.35;2.17;;;;;;;;;;5075992;28;20047;-77
2022/08/27 11:58:20;;;;;;;2.13;1.77;;;;;;;;;;5082866;28;20103;-76
2022/08/27 12:00:47;;;;;;;4.22;1.98;;;;;;;;;;5080337;28;20107;-77
2022/08/27 12:03:19;;;;;;;4.43;2.40;;;;;;;;;;5078510;28;20652;-80
2022/08/27 12:05:46;;;;;;;3.28;2.22;;;;;;;;;;5073688;28;20035;-80
2022/08/27 12:08:21;;;;;;;3.88;2.03;;;;;;;;;;5072307;28;20046;-78
2022/08/27 12:10:57;;;;;;;2.40;1.98;;;;;;;;;;5073277;28;20048;-76
2022/08/27 12:13:42;;;;;;;2.45;1.73;;;;;;;;;;5077584;28;20040;-78
2022/08/27 12:16:22;;;;;;;4.63;2.13;;;;;;;;;;5077209;28;20036;-83
2022/08/27 12:18:56;;;;;;;4.97;2.65;;;;;;;;;;5075149;28;20262;-85
2022/08/27 12:21:26;;;;;;;4.03;2.30;;;;;;;;;;5069201;28;20485;-79
2022/08/27 12:23:58;;;;;;;3.72;1.90;;;;;;;;;;5072194;28;20033;-83
2022/08/27 12:26:24;;;;;;;4.00;2.40;;;;;;;;;;5076909;28;20032;-79
2022/08/27 12:28:51;;;;;;;4.90;2.20;;;;;;;;;;5076893;28;20094;-80
2022/08/27 12:31:19;;;;;;;4.57;2.60;;;;;;;;;;5082058;28;20028;-78
2022/08/27 12:33:46;;;;;;;4.50;2.13;;;;;;;;;;5075555;28;20024;-80
2022/08/27 12:36:18;;;;;;;3.53;2.58;;;;;;;;;;5075188;28;20025;-83
2022/08/27 12:38:47;;;;;;;4.50;2.25;;;;;;;;;;5072928;28;20039;-81
2022/08/27 12:41:23;;;;;;;3.97;2.60;;;;;;;;;;5086902;28;20393;-78
2022/08/27 12:43:49;;;;;;;5.13;2.40;;;;;;;;;;5077752;28;20099;-80
2022/08/27 12:46:16;;;;;;;4.55;2.60;;;;;;;;;;5079853;28;20523;-80
2022/08/27 12:48:42;;;;;;;5.05;2.40;;;;;;;;;;5085802;28;20452;-84
2022/08/27 12:51:13;;;;;;;5.10;2.60;;;;;;;;;;5076643;28;20031;-85
2022/08/27 12:53:42;;;;;;;4.13;2.10;;;;;;;;;;5088792;28;20024;-82
2022/08/27 12:56:37;;;;;;;4.93;2.35;;;;;;;;;;5075628;28;20027;-83
2022/08/27 12:59:15;;;;;;;4.32;2.22;;;;;;;;;;5064082;28;20467;-82
2022/08/27 13:01:56;;;;;;;5.00;2.47;;;;;;;;;;5088081;28;20377;-83
2022/08/27 13:04:24;;;;;;;4.10;2.78;;;;;;;;;;5090555;28;20058;-83
2022/08/27 13:06:50;;;;;;;4.80;2.78;;;;;;;;;;5089962;28;20384;-83
2022/08/27 13:09:16;;;;;;;4.35;2.58;;;;;;;;;;5088880;28;20440;-86
2022/08/27 13:11:47;;;;;;;3.38;2.45;;;;;;;;;;5089339;28;20089;-83
2022/08/27 13:14:20;;;;;;;5.97;2.50;;;;;;;;;;5091769;28;20470;-84
2022/08/27 13:16:50;;;;;;;4.18;2.40;;;;;;;;;;5087762;28;20472;-80
2022/08/27 13:19:19;;;;;;;4.18;2.60;;;;;;;;;;5089752;28;20031;-77
2022/08/27 13:21:48;;;;;;;5.38;2.92;;;;;;;;;;5088801;28;20085;-78
2022/08/27 13:24:18;;;;;;;3.28;2.70;;;;;;;;;;5089378;28;20016;-78
2022/08/27 13:26:47;;;;;;;3.92;3.03;;;;;;;;;;5091323;28;20048;-76
2022/08/27 13:29:13;;;;;;;3.72;2.38;;;;;;;;;;5090458;28;20292;-77
2022/08/27 13:31:40;;;;;;;5.82;2.78;;;;;;;;;;5089342;28;20024;-80
2022/08/27 13:34:06;;;;;;;3.17;2.13;;;;;;;;;;5089339;28;20032;-77
2022/08/27 13:36:34;;;;;;;8.48;7.70;;;;;;;;;;5081585;28;20088;-78
2022/08/27 13:39:01;;;;;;;6.28;5.68;;;;;;;;;;5082319;28;20036;-78
2022/08/27 13:41:32;;;;;;;4.18;3.03;;;;;;;;;;5081416;28;20339;-77
2022/08/27 13:44:05;;;;;;;3.50;2.42;;;;;;;;;;5080549;28;20473;-77
2022/08/27 13:46:32;;;;;;;6.22;2.63;;;;;;;;;;5078862;28;20454;-78
2022/08/27 13:48:58;;;;;;;3.38;2.30;;;;;;;;;;5073513;28;20137;-76
2022/08/27 13:51:26;;;;;;;4.45;2.60;;;;;;;;;;5069027;28;20406;-77
2022/08/27 13:56:38;;;;;;;5.97;2.95;;;;;;;;;;5075110;28;20051;-77
2022/08/27 13:59:11;;;;;;;4.97;2.85;;;;;;;;;;5082511;28;20059;-78
2022/08/27 14:01:37;;;;;;;3.13;2.42;;;;;;;;;;5081577;28;20016;-78
2022/08/27 14:04:05;;;;;;;2.80;1.80;;;;;;;;;;5074434;28;20073;-77
2022/08/27 14:06:39;;;;;;;6.07;2.63;;;;;;;;;;5077493;28;20208;-76
2022/08/27 14:09:10;;;;;;;4.88;2.75;;;;;;;;;;5073605;28;20058;-76
2022/08/27 14:11:36;;;;;;;5.78;3.20;;;;;;;;;;5074295;28;20025;-79
2022/08/27 14:14:02;;;;;;;5.63;2.90;;;;;;;;;;5078570;28;20055;-83
2022/08/27 14:16:29;;;;;;;4.93;3.17;;;;;;;;;;5073220;28;20029;-77
2022/08/27 14:19:07;;;;;;;5.97;3.40;;;;;;;;;;5076969;28;20067;-76
2022/08/27 14:21:34;;;;;;;4.07;2.67;;;;;;;;;;5082392;28;20028;-77
2022/08/27 14:24:00;;;;;;;3.33;2.40;;;;;;;;;;5081748;28;20031;-76
2022/08/27 14:26:26;;;;;;;7.60;2.90;;;;;;;;;;5079475;28;20049;-76
2022/08/27 14:28:53;;;;;;;3.85;3.08;;;;;;;;;;5085880;28;20505;-77
2022/08/27 14:31:19;;;;;;;3.70;2.80;;;;;;;;;;5072873;28;20024;-76
2022/08/27 14:33:46;;;;;;;4.07;3.20;;;;;;;;;;5068003;28;20044;-79
2022/08/27 14:36:12;;;;;;;4.82;2.97;;;;;;;;;;5067674;28;20474;-76
2022/08/27 14:38:39;;;;;;;4.55;2.90;;;;;;;;;;5072400;28;20073;-76
2022/08/27 14:41:05;;;;;;;6.40;2.67;;;;;;;;;;5072862;28;20103;-77
2022/08/27 14:43:32;;;;;;;4.82;3.10;;;;;;;;;;5076835;28;20199;-77
2022/08/27 14:45:58;;;;;;;3.33;2.20;;;;;;;;;;5080827;28;20027;-76
2022/08/27 14:48:26;;;;;;;4.78;2.50;;;;;;;;;;5074223;28;20326;-77
2022/08/27 14:50:53;;;;;;;4.68;2.67;;;;;;;;;;5070546;28;20054;-77
2022/08/27 14:53:19;;;;;;;3.88;2.33;;;;;;;;;;5076751;28;20028;-77
2022/08/27 14:55:45;;;;;;;3.92;2.53;;;;;;;;;;5079323;28;20477;-77
2022/08/27 14:58:13;;;;;;;3.95;2.85;;;;;;;;;;5086114;28;20595;-78
2022/08/27 15:00:39;;;;;;;3.97;2.67;;;;;;;;;;5073752;28;20501;-77